createdAt,value
2018-07-06T00:00:18.321Z,20.10
2018-07-06T00:03:22.298Z,19.80
2018-07-06T00:06:03.461Z,17.60
2018-07-06T00:09:15.039Z,20.10
2018-07-06T00:12:04.277Z,20.00
2018-07-06T00:14:52.785Z,19.90
2018-07-06T00:17:42.634Z,17.10
2018-07-06T00:20:32.095Z,19.90
2018-07-06T00:23:21.168Z,19.90
2018-07-06T00:26:06.457Z,19.70
2018-07-06T00:28:50.780Z,19.70
2018-07-06T00:31:31.470Z,19.70
2018-07-06T00:34:12.407Z,19.80
2018-07-06T00:36:53.254Z,19.80
2018-07-06T00:39:34.609Z,19.80
2018-07-06T00:42:15.415Z,19.80
2018-07-06T00:44:57.630Z,19.80
2018-07-06T00:47:49.753Z,19.70
2018-07-06T00:50:41.481Z,19.70
2018-07-06T00:53:22.258Z,19.70
2018-07-06T00:56:22.263Z,19.60
2018-07-06T00:59:03.077Z,19.70
2018-07-06T01:02:07.831Z,19.70
2018-07-06T01:07:42.266Z,19.50
2018-07-06T01:10:23.113Z,19.30
2018-07-06T01:13:21.678Z,19.30
2018-07-06T01:16:02.394Z,19.20
2018-07-06T01:18:43.559Z,19.30
2018-07-06T01:21:24.317Z,19.30
2018-07-06T01:24:05.357Z,19.20
2018-07-06T01:27:04.468Z,18.90
2018-07-06T01:29:54.169Z,18.20
2018-07-06T01:32:38.727Z,18.70
2018-07-06T01:35:23.318Z,18.60
2018-07-06T01:38:11.995Z,18.70
2018-07-06T01:40:53.055Z,18.70
2018-07-06T01:43:33.748Z,18.90
2018-07-06T01:46:14.982Z,18.90
2018-07-06T01:48:55.800Z,18.90
2018-07-06T01:51:36.938Z,18.80
2018-07-06T01:54:17.638Z,18.80
2018-07-06T01:57:06.162Z,18.70
2018-07-06T01:59:58.301Z,18.60
2018-07-06T02:02:39.842Z,18.70
2018-07-06T02:05:20.382Z,18.60
2018-07-06T02:08:10.518Z,18.80
2018-07-06T02:11:06.269Z,17.80
2018-07-06T02:13:48.353Z,15.40
2018-07-06T02:16:29.115Z,18.50
2018-07-06T02:19:12.412Z,18.40
2018-07-06T02:22:00.128Z,18.30
2018-07-06T02:24:41.019Z,18.00
2018-07-06T02:27:22.585Z,18.00
2018-07-06T02:30:03.250Z,18.10
2018-07-06T02:32:45.987Z,17.90
2018-07-06T02:35:42.151Z,18.00
2018-07-06T02:38:29.796Z,18.10
2018-07-06T02:41:11.601Z,18.00
2018-07-06T02:44:15.388Z,18.00
2018-07-06T02:47:05.465Z,18.10
2018-07-06T02:50:04.014Z,18.00
2018-07-06T02:52:45.440Z,17.80
2018-07-06T02:55:26.560Z,17.90
2018-07-06T02:58:14.603Z,18.00
2018-07-06T03:01:03.103Z,17.90
2018-07-06T03:03:45.734Z,18.00
2018-07-06T03:06:26.747Z,20.60
2018-07-06T03:09:07.315Z,18.30
2018-07-06T03:11:48.444Z,18.10
2018-07-06T03:14:48.236Z,18.00
2018-07-06T03:17:37.745Z,18.10
2018-07-06T03:20:34.550Z,17.80
2018-07-06T03:23:15.588Z,17.80
2018-07-06T03:26:12.840Z,17.70
2018-07-06T03:28:53.914Z,17.80
2018-07-06T03:31:35.858Z,17.80
2018-07-06T03:34:17.921Z,17.60
2018-07-06T03:37:06.754Z,17.70
2018-07-06T03:39:55.549Z,17.80
2018-07-06T03:42:38.783Z,17.90
2018-07-06T03:45:20.183Z,18.10
2018-07-06T03:48:00.871Z,18.10
2018-07-06T03:50:44.427Z,18.40
2018-07-06T03:53:26.241Z,17.90
2018-07-06T03:56:09.689Z,17.90
2018-07-06T03:59:01.212Z,18.10
2018-07-06T04:02:12.744Z,17.80
2018-07-06T04:05:16.698Z,17.70
2018-07-06T04:08:15.986Z,17.80
2018-07-06T04:11:01.690Z,18.00
2018-07-06T04:13:53.438Z,18.10
2018-07-06T04:16:34.475Z,17.90
2018-07-06T04:19:24.918Z,18.00
2018-07-06T04:22:05.861Z,17.90
2018-07-06T04:24:46.895Z,18.20
2018-07-06T04:27:29.998Z,18.40
2018-07-06T04:30:10.864Z,18.50
2018-07-06T04:33:05.534Z,18.20
2018-07-06T04:36:00.376Z,18.40
2018-07-06T04:38:41.690Z,18.40
2018-07-06T04:41:22.367Z,18.10
2018-07-06T04:44:06.981Z,18.10
2018-07-06T04:46:47.711Z,18.30
2018-07-06T04:49:37.395Z,18.70
2018-07-06T04:52:19.714Z,18.70
2018-07-06T04:55:28.274Z,21.30
2018-07-06T04:58:08.879Z,21.10
2018-07-06T05:00:49.908Z,18.90
2018-07-06T05:03:31.660Z,19.10
2018-07-06T05:06:12.617Z,19.10
2018-07-06T05:09:10.036Z,19.20
2018-07-06T05:12:22.187Z,18.70
2018-07-06T05:15:16.170Z,18.60
2018-07-06T05:18:18.375Z,18.80
2018-07-06T05:21:29.939Z,18.60
2018-07-06T05:24:12.722Z,18.80
2018-07-06T05:26:54.774Z,19.10
2018-07-06T05:29:36.038Z,19.90
2018-07-06T05:32:21.826Z,19.90
2018-07-06T05:35:05.491Z,20.20
2018-07-06T05:37:52.931Z,20.00
2018-07-06T05:40:57.947Z,20.20
2018-07-06T05:43:56.455Z,20.10
2018-07-06T05:46:37.828Z,20.30
2018-07-06T05:49:18.697Z,20.00
2018-07-06T05:52:04.260Z,20.00
2018-07-06T05:54:45.013Z,20.10
2018-07-06T05:57:41.852Z,21.00
2018-07-06T06:00:28.495Z,20.90
2018-07-06T06:03:09.915Z,20.30
2018-07-06T06:06:11.826Z,20.50
2018-07-06T06:09:01.282Z,20.60
2018-07-06T06:11:31.793Z,20.80
2018-07-06T06:14:19.636Z,20.90
2018-07-06T06:16:53.705Z,20.70
2018-07-06T06:19:50.501Z,20.70
2018-07-06T06:22:36.570Z,20.20
2018-07-06T06:33:05.872Z,19.70
2018-07-06T06:35:46.411Z,19.70
2018-07-06T06:59:05.629Z,19.50
2018-07-06T07:22:18.945Z,18.60
2018-07-06T07:25:15.388Z,19.00
2018-07-06T07:28:05.901Z,19.20
2018-07-06T07:33:28.357Z,19.60
2018-07-06T07:52:11.941Z,19.80
2018-07-06T08:00:00.822Z,19.10
2018-07-06T08:02:40.417Z,19.10
2018-07-06T08:05:21.367Z,18.90
2018-07-06T08:08:12.097Z,19.10
2018-07-06T08:13:30.717Z,19.30
2018-07-06T08:16:10.055Z,19.40
2018-07-06T08:18:52.431Z,19.40
2018-07-06T08:21:39.104Z,19.60
2018-07-06T08:24:22.155Z,19.50
2018-07-06T08:27:10.448Z,19.70
2018-07-06T08:29:50.003Z,20.00
2018-07-06T08:32:30.322Z,20.40
2018-07-06T08:35:11.869Z,20.70
2018-07-06T08:38:03.304Z,20.50
2018-07-06T08:40:37.286Z,19.00
2018-07-06T08:43:14.393Z,21.00
2018-07-06T08:48:34.605Z,20.70
2018-07-06T08:51:08.310Z,20.90
2018-07-06T08:56:13.396Z,21.70
2018-07-06T08:58:57.362Z,21.40
2018-07-06T09:01:43.472Z,21.30
2018-07-06T09:04:18.859Z,21.00
2018-07-06T09:06:51.655Z,20.50
2018-07-06T09:09:22.399Z,20.50
2018-07-06T09:12:06.379Z,20.70
2018-07-06T09:20:13.907Z,21.30
2018-07-06T09:25:19.146Z,21.40
2018-07-06T09:27:53.230Z,21.60
2018-07-06T09:30:30.764Z,21.80
2018-07-06T09:33:19.375Z,21.80
2018-07-06T09:35:51.176Z,21.60
2018-07-06T09:38:33.712Z,21.70
2018-07-06T09:41:30.752Z,21.80
2018-07-06T09:44:17.701Z,21.90
2018-07-06T09:47:00.734Z,22.00
2018-07-06T09:49:51.304Z,22.30
2018-07-06T09:55:02.889Z,21.50
2018-07-06T09:57:41.979Z,21.60
2018-07-06T10:00:24.091Z,21.40
2018-07-06T10:03:03.401Z,21.20
2018-07-06T10:05:36.404Z,20.80
2018-07-06T10:10:40.627Z,21.00
2018-07-06T10:13:21.139Z,21.50
2018-07-06T10:15:54.071Z,21.60
2018-07-06T10:18:41.191Z,21.90
2018-07-06T10:21:12.424Z,21.70
2018-07-06T10:26:42.288Z,22.60
2018-07-06T10:30:12.040Z,23.30
2018-07-06T10:32:50.812Z,22.40
2018-07-06T10:35:28.799Z,22.70
2018-07-06T10:38:00.497Z,22.10
2018-07-06T10:40:40.831Z,21.90
2018-07-06T10:43:20.878Z,21.80
2018-07-06T10:47:03.546Z,21.80
2018-07-06T10:49:41.090Z,21.30
2018-07-06T10:52:16.410Z,21.30
2018-07-06T10:55:13.319Z,21.70
2018-07-06T10:57:47.365Z,21.70
2018-07-06T11:00:19.379Z,22.10
2018-07-06T11:02:55.193Z,22.60
2018-07-06T11:05:30.439Z,22.80
2018-07-06T11:08:18.113Z,22.80
2018-07-06T11:10:50.505Z,22.70
2018-07-06T11:13:37.199Z,22.70
2018-07-06T11:16:21.257Z,22.40
2018-07-06T11:19:01.891Z,22.30
2018-07-06T11:21:45.116Z,22.10
2018-07-06T11:24:40.234Z,22.10
2018-07-06T11:27:14.284Z,22.10
2018-07-06T11:29:56.153Z,22.00
2018-07-06T11:32:27.254Z,22.10
2018-07-06T11:37:32.701Z,22.50
2018-07-06T11:40:05.421Z,22.70
2018-07-06T11:42:49.778Z,22.80
2018-07-06T11:45:25.164Z,22.70
2018-07-06T11:47:59.653Z,22.60
2018-07-06T11:50:31.300Z,22.60
2018-07-06T11:53:14.721Z,22.30
2018-07-06T11:56:11.392Z,22.40
2018-07-06T11:58:57.217Z,22.60
2018-07-06T12:01:32.332Z,23.60
2018-07-06T12:04:09.403Z,22.50
2018-07-06T12:07:10.601Z,22.70
2018-07-06T12:10:21.211Z,22.90
2018-07-06T12:12:58.291Z,19.70
2018-07-06T12:15:35.217Z,23.10
2018-07-06T12:18:14.464Z,23.00
2018-07-06T12:20:48.233Z,24.00
2018-07-06T12:23:25.092Z,23.70
2018-07-06T12:26:04.813Z,23.90
2018-07-06T12:28:38.641Z,23.80
2018-07-06T12:31:29.280Z,23.70
2018-07-06T12:34:01.544Z,23.80
2018-07-06T12:36:36.204Z,23.90
2018-07-06T12:39:09.819Z,23.80
2018-07-06T12:44:22.985Z,23.60
2018-07-06T12:47:20.119Z,23.60
2018-07-06T12:50:30.323Z,23.80
2018-07-06T12:53:10.341Z,23.50
2018-07-06T12:55:44.619Z,23.90
2018-07-06T12:58:16.780Z,24.00
2018-07-06T13:00:57.093Z,24.10
2018-07-06T13:03:29.409Z,24.10
2018-07-06T13:08:34.790Z,24.20
2018-07-06T13:11:23.739Z,24.40
2018-07-06T13:16:26.616Z,24.70
2018-07-06T13:19:15.699Z,25.00
2018-07-06T13:21:47.300Z,22.50
2018-07-06T13:24:20.367Z,24.80
2018-07-06T13:27:00.322Z,24.70
2018-07-06T13:29:32.620Z,24.80
2018-07-06T13:32:13.293Z,24.60
2018-07-06T13:34:52.786Z,27.00
2018-07-06T13:37:24.096Z,24.60
2018-07-06T13:39:56.394Z,24.70
2018-07-06T13:42:37.285Z,24.80
2018-07-06T13:45:13.890Z,25.10
2018-07-06T13:47:54.723Z,25.20
2018-07-06T13:50:27.232Z,26.00
2018-07-06T13:53:07.530Z,25.10
2018-07-06T13:55:44.104Z,22.00
2018-07-06T13:58:15.947Z,24.60
2018-07-06T14:00:56.439Z,24.50
2018-07-06T14:03:30.711Z,24.70
2018-07-06T14:06:03.263Z,25.20
2018-07-06T14:08:46.108Z,25.20
2018-07-06T14:11:24.268Z,25.20
2018-07-06T14:14:00.217Z,25.10
2018-07-06T14:16:52.746Z,25.10
2018-07-06T14:19:26.509Z,25.30
2018-07-06T14:21:58.241Z,25.70
2018-07-06T14:24:29.676Z,25.80
2018-07-06T14:27:04.792Z,25.60
2018-07-06T14:29:39.911Z,25.50
2018-07-06T14:32:16.773Z,25.40
2018-07-06T14:34:48.611Z,25.40
2018-07-06T14:37:19.719Z,25.50
2018-07-06T14:39:54.471Z,25.20
2018-07-06T14:42:34.861Z,24.40
2018-07-06T14:45:09.878Z,25.30
2018-07-06T14:47:47.569Z,25.00
2018-07-06T14:50:19.103Z,25.00
2018-07-06T14:52:52.386Z,25.10
2018-07-06T14:55:23.546Z,25.00
2018-07-06T14:57:58.103Z,24.90
2018-07-06T15:00:29.941Z,24.80
2018-07-06T15:03:00.538Z,25.00
2018-07-06T15:05:31.976Z,25.20
2018-07-06T15:08:04.618Z,25.40
2018-07-06T15:10:41.586Z,25.40
2018-07-06T15:13:12.411Z,25.50
2018-07-06T15:15:44.095Z,25.60
2018-07-06T15:18:15.820Z,25.80
2018-07-06T15:20:47.236Z,25.50
2018-07-06T15:23:27.740Z,25.50
2018-07-06T15:25:58.434Z,25.40
2018-07-06T15:28:30.729Z,25.50
2018-07-06T15:31:11.251Z,25.70
2018-07-06T15:33:48.231Z,25.70
2018-07-06T15:36:28.588Z,25.80
2018-07-06T15:39:16.429Z,26.00
2018-07-06T15:41:54.256Z,26.40
2018-07-06T15:44:34.431Z,26.30
2018-07-06T15:47:06.693Z,25.90
2018-07-06T15:49:44.324Z,25.60
2018-07-06T15:52:16.557Z,25.40
2018-07-06T15:54:47.851Z,25.40
2018-07-06T15:57:19.910Z,25.20
2018-07-06T16:00:04.865Z,25.40
2018-07-06T16:02:37.585Z,25.70
2018-07-06T16:05:17.758Z,25.70
2018-07-06T16:08:00.361Z,22.70
2018-07-06T16:10:33.669Z,25.50
2018-07-06T16:13:04.340Z,25.60
2018-07-06T16:15:44.696Z,25.50
2018-07-06T16:18:35.431Z,25.30
2018-07-06T16:21:25.283Z,25.50
2018-07-06T16:23:56.079Z,25.40
2018-07-06T16:26:37.686Z,25.50
2018-07-06T16:29:13.813Z,25.80
2018-07-06T16:31:51.132Z,22.70
2018-07-06T16:34:31.515Z,25.30
2018-07-06T16:37:21.635Z,25.70
2018-07-06T16:39:54.412Z,25.90
2018-07-06T16:42:24.908Z,25.70
2018-07-06T16:44:58.263Z,25.90
2018-07-06T16:47:33.475Z,26.00
2018-07-06T16:50:05.375Z,26.10
2018-07-06T16:52:41.301Z,25.80
2018-07-06T16:55:11.997Z,25.60
2018-07-06T16:57:43.552Z,26.90
2018-07-06T17:00:15.790Z,24.60
2018-07-06T17:02:50.232Z,25.90
2018-07-06T17:05:23.338Z,26.60
2018-07-06T17:07:58.110Z,25.80
2018-07-06T17:10:29.081Z,25.90
2018-07-06T17:13:01.607Z,25.70
2018-07-06T17:15:34.271Z,25.30
2018-07-06T17:18:10.009Z,25.10
2018-07-06T17:20:42.123Z,25.20
2018-07-06T17:23:16.068Z,25.10
2018-07-06T17:25:47.434Z,24.90
2018-07-06T17:28:19.686Z,24.80
2018-07-06T17:30:51.103Z,24.80
2018-07-06T17:33:24.405Z,24.90
2018-07-06T17:35:59.041Z,24.80
2018-07-06T17:39:03.600Z,24.50
2018-07-06T17:41:40.550Z,24.50
2018-07-06T17:44:13.676Z,24.60
2018-07-06T17:46:47.732Z,24.80
2018-07-06T17:49:18.625Z,24.90
2018-07-06T17:51:51.961Z,25.00
2018-07-06T17:54:23.099Z,25.10
2018-07-06T17:56:55.701Z,24.80
2018-07-06T17:59:33.218Z,24.80
2018-07-06T18:02:04.568Z,24.70
2018-07-06T18:04:39.968Z,24.60
2018-07-06T18:09:48.760Z,25.80
2018-07-06T18:12:23.079Z,24.90
2018-07-06T18:14:56.364Z,24.70
2018-07-06T18:17:30.356Z,24.60
2018-07-06T18:20:03.877Z,24.50
2018-07-06T18:22:35.216Z,24.30
2018-07-06T18:25:09.888Z,25.00
2018-07-06T18:27:42.926Z,24.00
2018-07-06T18:30:14.479Z,24.10
2018-07-06T18:32:47.284Z,24.10
2018-07-06T18:35:20.447Z,24.10
2018-07-06T18:37:53.562Z,24.20
2018-07-06T18:40:24.699Z,24.10
2018-07-06T18:42:58.656Z,24.10
2018-07-06T18:45:29.773Z,24.00
2018-07-06T18:48:04.270Z,24.10
2018-07-06T18:50:38.016Z,24.10
2018-07-06T18:53:09.217Z,24.10
2018-07-06T18:55:41.670Z,24.10
2018-07-06T18:58:21.954Z,24.30
2018-07-06T19:00:54.938Z,24.20
2018-07-06T19:03:27.204Z,24.30
2018-07-06T19:05:58.268Z,24.40
2018-07-06T19:08:28.770Z,24.50
2018-07-06T19:11:03.754Z,24.60
2018-07-06T19:13:34.793Z,24.70
2018-07-06T19:16:06.720Z,24.70
2018-07-06T19:18:41.545Z,24.70
2018-07-06T19:21:15.045Z,24.70
2018-07-06T19:23:47.761Z,24.70
2018-07-06T19:26:18.707Z,24.70
2018-07-06T19:28:52.623Z,24.60
2018-07-06T19:31:25.642Z,24.60
2018-07-06T19:34:01.756Z,24.50
2018-07-06T19:36:35.887Z,24.30
2018-07-06T19:39:09.400Z,24.30
2018-07-06T19:41:41.206Z,24.30
2018-07-06T19:44:11.990Z,24.20
2018-07-06T19:46:43.202Z,24.10
2018-07-06T19:49:16.719Z,23.80
2018-07-06T19:51:49.114Z,23.90
2018-07-06T19:54:20.705Z,24.10
2018-07-06T19:56:52.345Z,24.10
2018-07-06T19:59:27.097Z,24.10
2018-07-06T20:02:06.096Z,24.10
2018-07-06T20:04:41.086Z,24.00
2018-07-06T20:07:15.397Z,24.00
2018-07-06T20:09:47.056Z,24.00
2018-07-06T20:12:17.761Z,23.90
2018-07-06T20:14:48.670Z,23.90
2018-07-06T20:17:19.574Z,23.80
2018-07-06T20:19:51.295Z,23.80
2018-07-06T20:22:22.088Z,23.80
2018-07-06T20:24:54.300Z,23.80
2018-07-06T20:27:27.000Z,23.70
2018-07-06T20:29:57.882Z,21.10
2018-07-06T20:32:29.556Z,23.70
2018-07-06T20:35:02.240Z,23.70
2018-07-06T20:37:34.145Z,23.60
2018-07-06T20:40:12.091Z,23.60
2018-07-06T20:42:44.496Z,23.60
2018-07-06T20:45:20.991Z,23.60
2018-07-06T20:48:00.281Z,23.60
2018-07-06T20:50:33.762Z,23.50
2018-07-06T20:53:07.367Z,23.50
2018-07-06T20:55:42.355Z,23.40
2018-07-06T20:58:18.575Z,23.40
2018-07-06T21:00:53.315Z,23.00
2018-07-06T21:03:27.832Z,23.30
2018-07-06T21:06:00.029Z,23.20
2018-07-06T21:08:33.286Z,23.30
2018-07-06T21:11:11.511Z,23.10
2018-07-06T21:13:50.260Z,23.00
2018-07-06T21:16:22.079Z,23.00
2018-07-06T21:18:56.749Z,22.90
2018-07-06T21:21:38.983Z,22.90
2018-07-06T21:24:13.626Z,22.90
2018-07-06T21:26:50.621Z,22.80
2018-07-06T21:29:27.386Z,22.70
2018-07-06T21:31:59.384Z,22.60
2018-07-06T21:34:34.107Z,22.60
2018-07-06T21:37:06.108Z,22.60
2018-07-06T21:39:37.855Z,22.60
2018-07-06T21:42:09.254Z,22.60
2018-07-06T21:44:41.591Z,22.60
2018-07-06T21:47:14.714Z,22.50
2018-07-06T21:49:48.782Z,22.20
2018-07-06T21:52:19.844Z,23.10
2018-07-06T21:54:53.239Z,22.20
2018-07-06T21:57:23.906Z,22.30
2018-07-06T21:59:55.637Z,22.20
2018-07-06T22:02:27.238Z,22.00
2018-07-06T22:04:59.106Z,22.00
2018-07-06T22:07:30.534Z,22.00
2018-07-06T22:10:04.842Z,22.00
2018-07-06T22:12:36.752Z,22.00
2018-07-06T22:15:07.709Z,22.10
2018-07-06T22:17:38.548Z,22.00
2018-07-06T22:20:17.363Z,22.00
2018-07-06T22:22:48.798Z,22.00
2018-07-06T22:25:20.569Z,21.90
2018-07-06T22:27:53.088Z,21.90
2018-07-06T22:30:24.823Z,21.80
2018-07-06T22:33:00.690Z,21.80
2018-07-06T22:35:31.175Z,21.80
2018-07-06T22:38:03.667Z,21.70
2018-07-06T22:40:36.092Z,21.80
2018-07-06T22:43:07.239Z,21.70
2018-07-06T22:45:38.982Z,21.70
2018-07-06T22:48:10.578Z,21.70
2018-07-06T22:50:41.278Z,21.60
2018-07-06T22:53:12.767Z,21.70
2018-07-06T22:55:45.084Z,21.70
2018-07-06T22:58:15.783Z,21.70
2018-07-06T23:00:46.767Z,21.60
2018-07-06T23:03:17.762Z,21.50
2018-07-06T23:05:48.652Z,21.50
2018-07-06T23:08:19.534Z,21.50
2018-07-06T23:10:51.364Z,21.40
2018-07-06T23:13:22.112Z,21.40
2018-07-06T23:15:53.231Z,21.30
2018-07-06T23:18:24.871Z,21.30
2018-07-06T23:20:55.269Z,21.30
2018-07-06T23:23:25.625Z,21.20
2018-07-06T23:25:56.326Z,21.20
2018-07-06T23:28:26.925Z,21.10
2018-07-06T23:30:58.049Z,21.00
2018-07-06T23:33:28.409Z,20.80
2018-07-06T23:35:58.754Z,20.90
2018-07-06T23:38:29.078Z,20.80
2018-07-06T23:40:59.672Z,20.70
2018-07-06T23:43:30.266Z,20.80
2018-07-06T23:46:01.003Z,20.80
2018-07-06T23:48:32.556Z,20.80
2018-07-06T23:51:03.594Z,20.80
2018-07-06T23:53:34.198Z,20.60
2018-07-06T23:56:05.177Z,20.70
2018-07-06T23:58:35.654Z,20.70
